EKSL weather

Slaglille Svæveflyvecenter
Capital Region, Denmark

Public forecast

Using degrees Celsius for public forecast. Weather courtesy of forecast.io.

Closest aviation weather report (METAR) to Slaglille Svæveflyvecenter

Closest report is Copenhagen Roskilde Airport, 18.4 nm (34.0 km) ENE. Retrieved 2020/01/24 04:20 UTC (4 minutes ago):

EKRK 240420Z AUTO 25009KT 4700 DZ BR OVC005/// 05/05 Q1018

Closest aviation forecast (TAF) to Slaglille Svæveflyvecenter

Closest forecast is Copenhagen Kastrup Airport, 35.8 nm (66.2 km) ENE. Retrieved 2020-01-24 00:44 UTC (4 hours ago):

TAF EKCH 232338Z 2400/2424 25012KT 5000 BKN005 TEMPO 2400/2406 1200 -RADZ BR BKN002 BECMG 2406/2408 BKN015 TEMPO 2408/2416 BKN008 TEMPO 2416/2419 3000 -RADZ BR BKN004